sensor_id;sensor_type;location;lat;lon;timestamp;temperature;humidity
15546;DHT22;7874;48.870;11.074;2023-06-22T01:33:50;18.50;99.90
15546;DHT22;7874;48.870;11.074;2023-06-22T01:36:18;18.40;99.90
15546;DHT22;7874;48.870;11.074;2023-06-22T01:38:45;18.30;99.90
15546;DHT22;7874;48.870;11.074;2023-06-22T01:41:13;18.30;99.90
15546;DHT22;7874;48.870;11.074;2023-06-22T01:43:41;18.40;99.90
15546;DHT22;7874;48.870;11.074;2023-06-22T01:46:09;18.40;99.90
15546;DHT22;7874;48.870;11.074;2023-06-22T01:48:36;18.50;99.90
15546;DHT22;7874;48.870;11.074;2023-06-22T01:51:04;18.50;99.90
15546;DHT22;7874;48.870;11.074;2023-06-22T01:53:31;18.50;99.90
15546;DHT22;7874;48.870;11.074;2023-06-22T01:55:58;18.50;99.90
15546;DHT22;7874;48.870;11.074;2023-06-22T01:58:27;18.50;99.90
15546;DHT22;7874;48.870;11.074;2023-06-22T02:00:58;18.50;99.90
15546;DHT22;7874;48.870;11.074;2023-06-22T02:03:31;18.50;99.90
15546;DHT22;7874;48.870;11.074;2023-06-22T02:06:05;18.40;99.90
15546;DHT22;7874;48.870;11.074;2023-06-22T02:08:37;18.40;99.90
15546;DHT22;7874;48.870;11.074;2023-06-22T02:12:53;18.40;99.90
15546;DHT22;7874;48.870;11.074;2023-06-22T02:15:20;18.40;99.90
15546;DHT22;7874;48.870;11.074;2023-06-22T02:17:47;18.40;99.90
15546;DHT22;7874;48.870;11.074;2023-06-22T02:20:15;18.40;99.90
15546;DHT22;7874;48.870;11.074;2023-06-22T02:22:42;18.30;99.90
15546;DHT22;7874;48.870;11.074;2023-06-22T02:25:09;18.40;99.90
15546;DHT22;7874;48.870;11.074;2023-06-22T02:27:35;18.40;99.90
15546;DHT22;7874;48.870;11.074;2023-06-22T02:30:08;18.40;99.90
15546;DHT22;7874;48.870;11.074;2023-06-22T02:32:36;18.40;99.90
15546;DHT22;7874;48.870;11.074;2023-06-22T02:35:03;18.50;99.90
15546;DHT22;7874;48.870;11.074;2023-06-22T02:37:30;18.40;99.90
15546;DHT22;7874;48.870;11.074;2023-06-22T02:39:57;18.40;99.90
15546;DHT22;7874;48.870;11.074;2023-06-22T02:42:24;18.40;99.90
15546;DHT22;7874;48.870;11.074;2023-06-22T02:44:51;18.30;99.90
15546;DHT22;7874;48.870;11.074;2023-06-22T02:47:19;18.30;99.90
15546;DHT22;7874;48.870;11.074;2023-06-22T02:49:46;18.20;99.90
15546;DHT22;7874;48.870;11.074;2023-06-22T02:52:12;18.30;99.90
15546;DHT22;7874;48.870;11.074;2023-06-22T02:54:39;18.30;99.90
15546;DHT22;7874;48.870;11.074;2023-06-22T02:57:06;18.30;99.90
15546;DHT22;7874;48.870;11.074;2023-06-22T02:59:39;18.30;99.90
15546;DHT22;7874;48.870;11.074;2023-06-22T03:02:06;18.20;99.90
15546;DHT22;7874;48.870;11.074;2023-06-22T03:04:35;18.30;99.90
15546;DHT22;7874;48.870;11.074;2023-06-22T03:07:03;18.20;99.90
15546;DHT22;7874;48.870;11.074;2023-06-22T03:09:30;18.20;99.90
15546;DHT22;7874;48.870;11.074;2023-06-22T03:11:57;18.20;99.90
15546;DHT22;7874;48.870;11.074;2023-06-22T03:14:25;18.10;99.90
15546;DHT22;7874;48.870;11.074;2023-06-22T03:17:14;18.20;99.90
15546;DHT22;7874;48.870;11.074;2023-06-22T03:26:33;18.00;99.90
15546;DHT22;7874;48.870;11.074;2023-06-22T03:29:00;18.00;99.90
15546;DHT22;7874;48.870;11.074;2023-06-22T03:31:29;18.00;99.90
15546;DHT22;7874;48.870;11.074;2023-06-22T03:33:57;18.00;99.90
15546;DHT22;7874;48.870;11.074;2023-06-22T03:36:24;17.90;99.90
15546;DHT22;7874;48.870;11.074;2023-06-22T03:38:55;17.90;99.90
15546;DHT22;7874;48.870;11.074;2023-06-22T03:41:23;17.80;99.90
15546;DHT22;7874;48.870;11.074;2023-06-22T03:43:52;17.80;99.90
15546;DHT22;7874;48.870;11.074;2023-06-22T03:46:19;17.80;99.90
15546;DHT22;7874;48.870;11.074;2023-06-22T03:48:47;17.90;99.90
15546;DHT22;7874;48.870;11.074;2023-06-22T03:51:14;17.90;99.90
15546;DHT22;7874;48.870;11.074;2023-06-22T03:53:41;18.00;99.90
15546;DHT22;7874;48.870;11.074;2023-06-22T03:56:09;18.00;99.90
15546;DHT22;7874;48.870;11.074;2023-06-22T03:58:36;18.10;99.90
15546;DHT22;7874;48.870;11.074;2023-06-22T04:01:10;18.10;99.90
15546;DHT22;7874;48.870;11.074;2023-06-22T04:03:37;18.20;99.90
15546;DHT22;7874;48.870;11.074;2023-06-22T04:06:05;18.30;99.90
15546;DHT22;7874;48.870;11.074;2023-06-22T04:08:32;18.40;99.90
15546;DHT22;7874;48.870;11.074;2023-06-22T04:11:02;18.50;99.90
15546;DHT22;7874;48.870;11.074;2023-06-22T04:13:30;18.50;99.90
15546;DHT22;7874;48.870;11.074;2023-06-22T04:15:58;18.50;99.90
15546;DHT22;7874;48.870;11.074;2023-06-22T04:18:31;18.60;99.90
15546;DHT22;7874;48.870;11.074;2023-06-22T04:20:59;18.60;99.90
15546;DHT22;7874;48.870;11.074;2023-06-22T05:22:07;20.70;99.90
15546;DHT22;7874;48.870;11.074;2023-06-22T05:24:59;20.90;99.90
15546;DHT22;7874;48.870;11.074;2023-06-22T05:28:00;21.00;99.90
15546;DHT22;7874;48.870;11.074;2023-06-22T06:48:46;25.10;99.90
15546;DHT22;7874;48.870;11.074;2023-06-22T06:51:13;25.50;99.90
15546;DHT22;7874;48.870;11.074;2023-06-22T06:53:40;25.40;99.90
15546;DHT22;7874;48.870;11.074;2023-06-22T06:56:10;25.70;99.90
15546;DHT22;7874;48.870;11.074;2023-06-22T06:58:38;25.70;99.90
15546;DHT22;7874;48.870;11.074;2023-06-22T07:01:05;25.80;99.90
15546;DHT22;7874;48.870;11.074;2023-06-22T07:03:32;26.00;99.90
15546;DHT22;7874;48.870;11.074;2023-06-22T07:06:00;26.30;99.90
15546;DHT22;7874;48.870;11.074;2023-06-22T07:08:27;26.40;99.90
15546;DHT22;7874;48.870;11.074;2023-06-22T07:10:54;26.40;99.90
15546;DHT22;7874;48.870;11.074;2023-06-22T07:13:20;26.30;99.90
15546;DHT22;7874;48.870;11.074;2023-06-22T07:15:47;26.40;99.90
15546;DHT22;7874;48.870;11.074;2023-06-22T07:21:37;26.30;99.90
15546;DHT22;7874;48.870;11.074;2023-06-22T07:24:05;26.50;99.90
15546;DHT22;7874;48.870;11.074;2023-06-22T07:26:32;26.80;99.90
15546;DHT22;7874;48.870;11.074;2023-06-22T07:28:59;26.70;99.90
15546;DHT22;7874;48.870;11.074;2023-06-22T07:31:26;26.70;99.90
15546;DHT22;7874;48.870;11.074;2023-06-22T07:33:53;27.00;99.90
15546;DHT22;7874;48.870;11.074;2023-06-22T07:36:19;26.80;99.90
15546;DHT22;7874;48.870;11.074;2023-06-22T07:38:47;26.80;99.90
15546;DHT22;7874;48.870;11.074;2023-06-22T07:41:14;26.70;99.90
15546;DHT22;7874;48.870;11.074;2023-06-22T07:43:41;27.00;99.90
15546;DHT22;7874;48.870;11.074;2023-06-22T07:46:08;27.20;99.90
15546;DHT22;7874;48.870;11.074;2023-06-22T07:50:23;27.20;99.90
15546;DHT22;7874;48.870;11.074;2023-06-22T07:52:50;27.60;99.90
15546;DHT22;7874;48.870;11.074;2023-06-22T07:55:18;27.90;99.90
15546;DHT22;7874;48.870;11.074;2023-06-22T07:57:48;28.10;99.90
15546;DHT22;7874;48.870;11.074;2023-06-22T08:00:17;27.80;99.90
15546;DHT22;7874;48.870;11.074;2023-06-22T08:02:45;27.60;99.90
15546;DHT22;7874;48.870;11.074;2023-06-22T08:05:14;27.70;99.90
15546;DHT22;7874;48.870;11.074;2023-06-22T08:07:42;27.60;99.90
15546;DHT22;7874;48.870;11.074;2023-06-22T08:10:10;27.60;99.90
15546;DHT22;7874;48.870;11.074;2023-06-22T08:12:37;27.80;99.90
15546;DHT22;7874;48.870;11.074;2023-06-22T08:15:06;28.10;99.90
15546;DHT22;7874;48.870;11.074;2023-06-22T08:17:36;28.10;99.90
15546;DHT22;7874;48.870;11.074;2023-06-22T08:20:03;28.30;99.90
15546;DHT22;7874;48.870;11.074;2023-06-22T08:22:34;28.20;99.90
15546;DHT22;7874;48.870;11.074;2023-06-22T08:25:04;28.30;99.90
15546;DHT22;7874;48.870;11.074;2023-06-22T08:27:31;28.40;99.90
15546;DHT22;7874;48.870;11.074;2023-06-22T08:29:58;28.60;99.90
15546;DHT22;7874;48.870;11.074;2023-06-22T08:32:26;28.70;99.90
15546;DHT22;7874;48.870;11.074;2023-06-22T08:34:53;28.60;99.90
15546;DHT22;7874;48.870;11.074;2023-06-22T08:37:20;28.60;99.90
15546;DHT22;7874;48.870;11.074;2023-06-22T08:39:56;28.90;99.90
15546;DHT22;7874;48.870;11.074;2023-06-22T08:42:25;28.70;99.50
15546;DHT22;7874;48.870;11.074;2023-06-22T08:44:52;29.10;99.90
15546;DHT22;7874;48.870;11.074;2023-06-22T08:47:19;28.80;99.90
15546;DHT22;7874;48.870;11.074;2023-06-22T08:49:46;28.60;99.90
15546;DHT22;7874;48.870;11.074;2023-06-22T08:52:14;28.60;99.90
15546;DHT22;7874;48.870;11.074;2023-06-22T08:54:41;28.90;99.90
15546;DHT22;7874;48.870;11.074;2023-06-22T08:57:08;29.40;99.90
15546;DHT22;7874;48.870;11.074;2023-06-22T08:59:37;29.00;98.90
15546;DHT22;7874;48.870;11.074;2023-06-22T09:02:05;29.20;99.10
15546;DHT22;7874;48.870;11.074;2023-06-22T09:04:34;29.70;99.00
15546;DHT22;7874;48.870;11.074;2023-06-22T09:07:01;29.90;98.20
15546;DHT22;7874;48.870;11.074;2023-06-22T09:09:31;30.40;97.90
15546;DHT22;7874;48.870;11.074;2023-06-22T09:11:57;30.60;97.90
15546;DHT22;7874;48.870;11.074;2023-06-22T09:14:24;31.00;97.70
15546;DHT22;7874;48.870;11.074;2023-06-22T09:16:52;31.10;97.10
15546;DHT22;7874;48.870;11.074;2023-06-22T09:19:19;31.00;96.30
15546;DHT22;7874;48.870;11.074;2023-06-22T09:21:46;31.80;96.90
15546;DHT22;7874;48.870;11.074;2023-06-22T09:24:13;32.20;96.00
15546;DHT22;7874;48.870;11.074;2023-06-22T09:26:39;32.50;95.50
15546;DHT22;7874;48.870;11.074;2023-06-22T09:29:06;32.40;96.40
15546;DHT22;7874;48.870;11.074;2023-06-22T09:31:33;32.70;95.40
15546;DHT22;7874;48.870;11.074;2023-06-22T09:34:01;32.90;95.60
15546;DHT22;7874;48.870;11.074;2023-06-22T09:36:28;32.80;94.90
15546;DHT22;7874;48.870;11.074;2023-06-22T09:38:54;32.60;94.10
15546;DHT22;7874;48.870;11.074;2023-06-22T09:41:24;33.20;94.60
15546;DHT22;7874;48.870;11.074;2023-06-22T09:43:51;33.80;95.20
15546;DHT22;7874;48.870;11.074;2023-06-22T09:46:17;33.70;92.60
15546;DHT22;7874;48.870;11.074;2023-06-22T09:48:47;34.00;93.30
15546;DHT22;7874;48.870;11.074;2023-06-22T09:51:15;33.80;93.10
15546;DHT22;7874;48.870;11.074;2023-06-22T09:53:42;33.80;92.30
15546;DHT22;7874;48.870;11.074;2023-06-22T09:56:09;33.80;92.80
15546;DHT22;7874;48.870;11.074;2023-06-22T09:58:40;33.80;92.30
15546;DHT22;7874;48.870;11.074;2023-06-22T10:01:07;33.90;91.40
15546;DHT22;7874;48.870;11.074;2023-06-22T10:03:33;33.80;92.30
15546;DHT22;7874;48.870;11.074;2023-06-22T10:06:00;34.00;91.40
15546;DHT22;7874;48.870;11.074;2023-06-22T10:08:29;34.20;91.50
15546;DHT22;7874;48.870;11.074;2023-06-22T10:10:55;34.50;91.10
15546;DHT22;7874;48.870;11.074;2023-06-22T10:13:22;34.20;90.80
15546;DHT22;7874;48.870;11.074;2023-06-22T10:15:49;34.60;90.80
15546;DHT22;7874;48.870;11.074;2023-06-22T10:18:17;34.10;91.10
15546;DHT22;7874;48.870;11.074;2023-06-22T10:23:12;34.00;90.80
15546;DHT22;7874;48.870;11.074;2023-06-22T10:25:40;34.60;91.00
15546;DHT22;7874;48.870;11.074;2023-06-22T10:28:07;34.00;90.30
15546;DHT22;7874;48.870;11.074;2023-06-22T10:30:34;33.90;90.50
15546;DHT22;7874;48.870;11.074;2023-06-22T10:33:00;34.60;90.30
15546;DHT22;7874;48.870;11.074;2023-06-22T10:35:27;35.20;90.50
15546;DHT22;7874;48.870;11.074;2023-06-22T10:39:08;35.30;90.50
15546;DHT22;7874;48.870;11.074;2023-06-22T10:41:35;35.50;89.20
15546;DHT22;7874;48.870;11.074;2023-06-22T10:44:03;36.00;89.10
15546;DHT22;7874;48.870;11.074;2023-06-22T10:46:29;35.50;88.00
15546;DHT22;7874;48.870;11.074;2023-06-22T10:48:56;36.00;88.70
15546;DHT22;7874;48.870;11.074;2023-06-22T10:51:24;35.80;87.10
15546;DHT22;7874;48.870;11.074;2023-06-22T10:53:51;35.90;87.50
15546;DHT22;7874;48.870;11.074;2023-06-22T10:56:19;36.10;87.70
15546;DHT22;7874;48.870;11.074;2023-06-22T10:58:46;36.30;85.60
15546;DHT22;7874;48.870;11.074;2023-06-22T11:01:13;36.70;83.90
15546;DHT22;7874;48.870;11.074;2023-06-22T11:03:39;36.50;84.90
15546;DHT22;7874;48.870;11.074;2023-06-22T11:06:06;36.70;84.20
15546;DHT22;7874;48.870;11.074;2023-06-22T11:08:33;36.60;83.70
15546;DHT22;7874;48.870;11.074;2023-06-22T11:11:00;36.50;85.60
15546;DHT22;7874;48.870;11.074;2023-06-22T11:13:28;37.20;82.90
15546;DHT22;7874;48.870;11.074;2023-06-22T11:15:55;36.70;83.20
15546;DHT22;7874;48.870;11.074;2023-06-22T11:18:22;36.00;84.80
15546;DHT22;7874;48.870;11.074;2023-06-22T11:20:49;36.70;82.90
15546;DHT22;7874;48.870;11.074;2023-06-22T11:23:15;36.70;82.80
15546;DHT22;7874;48.870;11.074;2023-06-22T11:25:42;37.60;83.20
15546;DHT22;7874;48.870;11.074;2023-06-22T11:28:09;37.60;82.10
15546;DHT22;7874;48.870;11.074;2023-06-22T11:30:37;37.00;81.30
15546;DHT22;7874;48.870;11.074;2023-06-22T11:33:04;36.80;82.10
15546;DHT22;7874;48.870;11.074;2023-06-22T11:35:31;36.40;82.90
15546;DHT22;7874;48.870;11.074;2023-06-22T11:37:57;36.20;82.10
15546;DHT22;7874;48.870;11.074;2023-06-22T11:40:24;36.20;82.00
15546;DHT22;7874;48.870;11.074;2023-06-22T11:42:51;36.30;83.00
15546;DHT22;7874;48.870;11.074;2023-06-22T11:45:18;36.70;81.10
15546;DHT22;7874;48.870;11.074;2023-06-22T11:47:47;37.00;81.60
15546;DHT22;7874;48.870;11.074;2023-06-22T11:50:14;36.80;81.00
15546;DHT22;7874;48.870;11.074;2023-06-22T11:52:40;37.30;80.10
15546;DHT22;7874;48.870;11.074;2023-06-22T11:55:25;37.40;79.90
15546;DHT22;7874;48.870;11.074;2023-06-22T11:58:41;37.90;79.00
15546;DHT22;7874;48.870;11.074;2023-06-22T12:01:49;36.70;79.90
15546;DHT22;7874;48.870;11.074;2023-06-22T12:07:43;37.80;79.60
15546;DHT22;7874;48.870;11.074;2023-06-22T12:10:11;37.60;78.90
15546;DHT22;7874;48.870;11.074;2023-06-22T12:12:38;38.10;80.40
15546;DHT22;7874;48.870;11.074;2023-06-22T12:15:05;37.90;76.90
15546;DHT22;7874;48.870;11.074;2023-06-22T12:17:33;38.60;77.50
15546;DHT22;7874;48.870;11.074;2023-06-22T12:20:00;38.50;76.60
15546;DHT22;7874;48.870;11.074;2023-06-22T12:22:27;38.80;76.70
15546;DHT22;7874;48.870;11.074;2023-06-22T12:24:55;38.70;76.80
15546;DHT22;7874;48.870;11.074;2023-06-22T12:27:22;37.50;75.20
15546;DHT22;7874;48.870;11.074;2023-06-22T12:29:49;36.40;77.80
15546;DHT22;7874;48.870;11.074;2023-06-22T12:32:16;35.80;78.00
15546;DHT22;7874;48.870;11.074;2023-06-22T12:34:44;35.30;80.20
15546;DHT22;7874;48.870;11.074;2023-06-22T12:37:11;35.60;79.70
15546;DHT22;7874;48.870;11.074;2023-06-22T12:39:39;35.80;79.10
15546;DHT22;7874;48.870;11.074;2023-06-22T12:42:08;35.70;79.80
15546;DHT22;7874;48.870;11.074;2023-06-22T12:44:37;36.00;78.90
15546;DHT22;7874;48.870;11.074;2023-06-22T12:47:05;35.50;79.40
15546;DHT22;7874;48.870;11.074;2023-06-22T12:49:33;34.80;80.80
15546;DHT22;7874;48.870;11.074;2023-06-22T12:52:00;34.80;80.50
15546;DHT22;7874;48.870;11.074;2023-06-22T12:54:27;34.80;80.30
15546;DHT22;7874;48.870;11.074;2023-06-22T12:56:55;34.90;80.70
15546;DHT22;7874;48.870;11.074;2023-06-22T12:59:23;35.10;80.40
15546;DHT22;7874;48.870;11.074;2023-06-22T13:01:53;35.90;77.80
15546;DHT22;7874;48.870;11.074;2023-06-22T13:04:20;36.60;77.50
15546;DHT22;7874;48.870;11.074;2023-06-22T13:06:47;37.00;78.50
15546;DHT22;7874;48.870;11.074;2023-06-22T13:09:15;36.10;78.20
15546;DHT22;7874;48.870;11.074;2023-06-22T13:11:43;35.80;78.00
15546;DHT22;7874;48.870;11.074;2023-06-22T13:14:10;36.30;77.10
15546;DHT22;7874;48.870;11.074;2023-06-22T13:16:52;36.00;77.80
15546;DHT22;7874;48.870;11.074;2023-06-22T13:19:25;35.80;79.10
15546;DHT22;7874;48.870;11.074;2023-06-22T13:21:54;35.60;78.70
15546;DHT22;7874;48.870;11.074;2023-06-22T13:24:21;35.70;79.20
15546;DHT22;7874;48.870;11.074;2023-06-22T13:27:52;36.00;78.90
15546;DHT22;7874;48.870;11.074;2023-06-22T13:30:19;36.10;77.70
15546;DHT22;7874;48.870;11.074;2023-06-22T13:32:46;36.50;78.10
15546;DHT22;7874;48.870;11.074;2023-06-22T13:35:13;36.20;78.50
15546;DHT22;7874;48.870;11.074;2023-06-22T13:37:39;36.70;78.90
15546;DHT22;7874;48.870;11.074;2023-06-22T13:40:07;36.60;78.90
15546;DHT22;7874;48.870;11.074;2023-06-22T13:42:34;36.10;78.40
15546;DHT22;7874;48.870;11.074;2023-06-22T13:45:03;36.40;78.00
15546;DHT22;7874;48.870;11.074;2023-06-22T13:47:30;36.40;77.80
15546;DHT22;7874;48.870;11.074;2023-06-22T13:49:57;36.30;77.90
15546;DHT22;7874;48.870;11.074;2023-06-22T13:52:24;36.30;77.90
15546;DHT22;7874;48.870;11.074;2023-06-22T13:55:35;36.20;77.30
15546;DHT22;7874;48.870;11.074;2023-06-22T14:12:26;35.30;79.40
15546;DHT22;7874;48.870;11.074;2023-06-22T14:15:13;35.00;81.10
15546;DHT22;7874;48.870;11.074;2023-06-22T14:24:53;34.50;81.70
15546;DHT22;7874;48.870;11.074;2023-06-22T14:31:11;34.00;80.80
15546;DHT22;7874;48.870;11.074;2023-06-22T14:33:38;33.90;80.20
15546;DHT22;7874;48.870;11.074;2023-06-22T14:36:05;33.70;82.30
15546;DHT22;7874;48.870;11.074;2023-06-22T14:38:32;33.60;81.90
15546;DHT22;7874;48.870;11.074;2023-06-22T14:40:59;33.30;81.50
15546;DHT22;7874;48.870;11.074;2023-06-22T14:43:26;33.00;80.50
15546;DHT22;7874;48.870;11.074;2023-06-22T14:45:53;32.90;80.60
15546;DHT22;7874;48.870;11.074;2023-06-22T14:48:21;32.90;81.30
15546;DHT22;7874;48.870;11.074;2023-06-22T14:50:48;32.90;80.10
15546;DHT22;7874;48.870;11.074;2023-06-22T14:53:15;32.80;81.00
15546;DHT22;7874;48.870;11.074;2023-06-22T14:55:42;32.70;80.80
15546;DHT22;7874;48.870;11.074;2023-06-22T14:58:09;32.50;81.00
15546;DHT22;7874;48.870;11.074;2023-06-22T15:00:36;32.50;80.70
15546;DHT22;7874;48.870;11.074;2023-06-22T15:03:04;32.40;82.30
15546;DHT22;7874;48.870;11.074;2023-06-22T15:05:34;32.20;81.50
15546;DHT22;7874;48.870;11.074;2023-06-22T15:08:01;32.00;81.70
15546;DHT22;7874;48.870;11.074;2023-06-22T15:10:38;32.10;82.70
15546;DHT22;7874;48.870;11.074;2023-06-22T15:13:05;32.00;84.20
15546;DHT22;7874;48.870;11.074;2023-06-22T15:15:32;31.90;85.60
15546;DHT22;7874;48.870;11.074;2023-06-22T15:18:00;31.90;85.30
15546;DHT22;7874;48.870;11.074;2023-06-22T15:20:26;31.90;84.70
15546;DHT22;7874;48.870;11.074;2023-06-22T15:22:56;31.90;87.60
15546;DHT22;7874;48.870;11.074;2023-06-22T15:25:25;31.80;90.20
15546;DHT22;7874;48.870;11.074;2023-06-22T15:27:52;31.90;90.00
15546;DHT22;7874;48.870;11.074;2023-06-22T15:30:20;32.10;88.80
15546;DHT22;7874;48.870;11.074;2023-06-22T15:32:48;32.10;87.20
15546;DHT22;7874;48.870;11.074;2023-06-22T15:35:15;31.90;84.10
15546;DHT22;7874;48.870;11.074;2023-06-22T15:37:44;31.70;84.70
15546;DHT22;7874;48.870;11.074;2023-06-22T15:40:12;31.50;84.10
15546;DHT22;7874;48.870;11.074;2023-06-22T15:42:39;31.60;82.80
15546;DHT22;7874;48.870;11.074;2023-06-22T15:45:06;31.50;83.00
15546;DHT22;7874;48.870;11.074;2023-06-22T15:47:33;31.40;83.20
15546;DHT22;7874;48.870;11.074;2023-06-22T15:50:00;31.40;83.60
15546;DHT22;7874;48.870;11.074;2023-06-22T15:52:27;31.40;87.50
15546;DHT22;7874;48.870;11.074;2023-06-22T15:54:54;31.40;85.10
15546;DHT22;7874;48.870;11.074;2023-06-22T15:57:24;31.40;86.50
15546;DHT22;7874;48.870;11.074;2023-06-22T15:59:52;31.40;86.60
15546;DHT22;7874;48.870;11.074;2023-06-22T16:02:19;31.40;86.60
15546;DHT22;7874;48.870;11.074;2023-06-22T16:04:46;31.30;85.10
15546;DHT22;7874;48.870;11.074;2023-06-22T16:07:13;31.30;86.30
15546;DHT22;7874;48.870;11.074;2023-06-22T16:09:40;31.10;87.70
15546;DHT22;7874;48.870;11.074;2023-06-22T16:12:07;31.10;90.20
15546;DHT22;7874;48.870;11.074;2023-06-22T16:16:37;31.10;90.80
15546;DHT22;7874;48.870;11.074;2023-06-22T16:19:04;30.90;91.70
15546;DHT22;7874;48.870;11.074;2023-06-22T16:21:30;31.00;90.60
15546;DHT22;7874;48.870;11.074;2023-06-22T16:23:57;31.10;90.90
15546;DHT22;7874;48.870;11.074;2023-06-22T16:26:24;31.20;91.30
15546;DHT22;7874;48.870;11.074;2023-06-22T16:28:52;31.20;90.20
15546;DHT22;7874;48.870;11.074;2023-06-22T16:31:19;31.10;90.90
15546;DHT22;7874;48.870;11.074;2023-06-22T16:33:49;31.00;91.40
15546;DHT22;7874;48.870;11.074;2023-06-22T16:36:16;30.90;91.70
15546;DHT22;7874;48.870;11.074;2023-06-22T16:38:42;30.80;92.10
15546;DHT22;7874;48.870;11.074;2023-06-22T16:41:10;30.70;91.40
15546;DHT22;7874;48.870;11.074;2023-06-22T16:43:37;30.80;90.30
15546;DHT22;7874;48.870;11.074;2023-06-22T16:46:04;30.70;92.00
15546;DHT22;7874;48.870;11.074;2023-06-22T16:48:32;30.70;93.20
15546;DHT22;7874;48.870;11.074;2023-06-22T16:51:00;30.70;93.20
15546;DHT22;7874;48.870;11.074;2023-06-22T16:53:27;30.50;94.00
15546;DHT22;7874;48.870;11.074;2023-06-22T16:55:55;30.50;92.50
15546;DHT22;7874;48.870;11.074;2023-06-22T16:58:23;30.40;92.40
15546;DHT22;7874;48.870;11.074;2023-06-22T17:00:51;30.40;92.30
15546;DHT22;7874;48.870;11.074;2023-06-22T17:03:22;30.40;92.20
15546;DHT22;7874;48.870;11.074;2023-06-22T17:05:52;30.50;92.90
15546;DHT22;7874;48.870;11.074;2023-06-22T17:08:21;30.50;92.80
15546;DHT22;7874;48.870;11.074;2023-06-22T17:10:49;30.40;93.00
15546;DHT22;7874;48.870;11.074;2023-06-22T17:13:17;30.40;93.30
15546;DHT22;7874;48.870;11.074;2023-06-22T17:15:44;30.30;92.90
15546;DHT22;7874;48.870;11.074;2023-06-22T17:18:13;30.20;93.20
15546;DHT22;7874;48.870;11.074;2023-06-22T17:20:40;30.10;94.10
15546;DHT22;7874;48.870;11.074;2023-06-22T17:23:07;29.80;94.50
15546;DHT22;7874;48.870;11.074;2023-06-22T17:25:35;29.60;94.50
15546;DHT22;7874;48.870;11.074;2023-06-22T17:28:03;29.50;94.70
15546;DHT22;7874;48.870;11.074;2023-06-22T17:30:30;29.50;93.10
15546;DHT22;7874;48.870;11.074;2023-06-22T17:32:57;29.50;93.50
15546;DHT22;7874;48.870;11.074;2023-06-22T17:35:24;29.50;93.80
15546;DHT22;7874;48.870;11.074;2023-06-22T17:37:52;29.50;93.60
15546;DHT22;7874;48.870;11.074;2023-06-22T17:40:21;29.50;94.90
15546;DHT22;7874;48.870;11.074;2023-06-22T17:43:02;29.30;95.20
15546;DHT22;7874;48.870;11.074;2023-06-22T17:45:32;29.20;95.30
15546;DHT22;7874;48.870;11.074;2023-06-22T17:48:08;29.10;96.60
15546;DHT22;7874;48.870;11.074;2023-06-22T17:50:38;28.90;97.10
15546;DHT22;7874;48.870;11.074;2023-06-22T17:53:09;28.80;97.00
15546;DHT22;7874;48.870;11.074;2023-06-22T17:55:36;28.80;97.60
15546;DHT22;7874;48.870;11.074;2023-06-22T17:58:05;28.70;97.90
15546;DHT22;7874;48.870;11.074;2023-06-22T18:00:32;28.60;98.20
15546;DHT22;7874;48.870;11.074;2023-06-22T18:02:59;28.50;98.70
15546;DHT22;7874;48.870;11.074;2023-06-22T18:05:29;28.30;98.90
15546;DHT22;7874;48.870;11.074;2023-06-22T18:07:57;28.20;99.40
15546;DHT22;7874;48.870;11.074;2023-06-22T18:10:26;28.10;99.50
15546;DHT22;7874;48.870;11.074;2023-06-22T18:12:54;28.00;99.60
15546;DHT22;7874;48.870;11.074;2023-06-22T18:15:23;28.00;99.80
15546;DHT22;7874;48.870;11.074;2023-06-22T18:17:51;28.00;99.90
15546;DHT22;7874;48.870;11.074;2023-06-22T18:20:18;27.90;99.90
15546;DHT22;7874;48.870;11.074;2023-06-22T18:22:47;27.80;99.90
15546;DHT22;7874;48.870;11.074;2023-06-22T18:25:14;27.70;99.90
15546;DHT22;7874;48.870;11.074;2023-06-22T18:27:42;27.60;99.90
15546;DHT22;7874;48.870;11.074;2023-06-22T18:30:10;27.60;99.90
15546;DHT22;7874;48.870;11.074;2023-06-22T18:32:39;27.50;99.90
15546;DHT22;7874;48.870;11.074;2023-06-22T18:35:07;27.40;99.90
15546;DHT22;7874;48.870;11.074;2023-06-22T18:37:34;27.40;99.90
15546;DHT22;7874;48.870;11.074;2023-06-22T18:40:02;27.40;99.90
15546;DHT22;7874;48.870;11.074;2023-06-22T18:42:32;27.30;99.90
15546;DHT22;7874;48.870;11.074;2023-06-22T20:13:22;22.40;99.90
15546;DHT22;7874;48.870;11.074;2023-06-22T20:15:50;21.60;99.90
15546;DHT22;7874;48.870;11.074;2023-06-22T20:18:32;21.00;99.90
15546;DHT22;7874;48.870;11.074;2023-06-22T20:25:12;20.80;99.90
